American Beauty — WDB9866 — position and weather

sailwx.info

Track history (hours):
 
Tides and Currents Weather Stations Pressure Air Temp Water Temp Dewpoint Dewpoint Depression Visibility Wind Speed Wind Dir Waves Ship Positions

American Beauty

Owner: American River Transportation Company, St Louis, MO. More information available from US FCC via Universal Licensing System and Coast Guard Vessel Documentation Center.

Last reported at 2018-May-15 14:20 UTC. Time now 2018-May-23 15:11 UTC.
Position N 38°50' W 090°06'.
Warning: this ship's position is 8 days out of date.

; draft 3.5 m.

Type: Towing. MMSI: 366984180.

Date/timePositionNaut miles runAvg speedWind from/ knotsBaromVisibWave heightAir tempDewpointWater temp
2018-May-15 14:20N 38°50' W 090°06'0 0.0
2018-May-15 14:01N 38°50' W 090°06'0 0.0
2018-May-15 13:30N 38°50' W 090°06'0 0.0
2018-May-15 13:00N 38°50' W 090°06'0 0.0
2018-May-15 12:30N 38°50' W 090°06'0 0.0
2018-May-15 12:01N 38°50' W 090°07'0 0.0
2018-May-15 11:30N 38°50' W 090°07'0 0.0
2018-May-15 11:01N 38°50' W 090°07'0 0.0
2018-May-15 10:31N 38°50' W 090°07'0 0.0
2018-May-15 10:00N 38°50' W 090°07'0 0.0
2018-May-15 09:31N 38°50' W 090°07'0 0.0
2018-May-15 09:01N 38°50' W 090°07'0 0.0
2018-May-15 08:31N 38°50' W 090°07'0 0.0
2018-May-15 08:01N 38°50' W 090°07'0 0.0
2018-May-15 07:30N 38°50' W 090°07'0 0.0
2018-May-15 07:01N 38°50' W 090°06'0 0.0
2018-May-15 06:31N 38°50' W 090°07'0 0.0
2018-May-15 06:01N 38°50' W 090°06'0 0.0
2018-May-15 05:30N 38°50' W 090°07'0 0.0
2018-May-15 05:01N 38°50' W 090°06'0 0.0
2018-May-15 04:31N 38°50' W 090°07'0 0.0
2018-May-15 04:01N 38°50' W 090°07'0 0.0
2018-May-15 03:31N 38°50' W 090°07'0 0.0
2018-May-15 03:01N 38°50' W 090°07'0 0.4
2018-May-15 02:30N 38°50' W 090°06'0 0.0
2018-May-15 01:58N 38°50' W 090°06'0 0.0
2018-May-15 01:29N 38°50' W 090°06'0 0.0
2018-May-15 00:53N 38°50' W 090°06'0 0.0
2018-May-15 00:30N 38°50' W 090°06'0 0.0
2018-May-15 00:01N 38°50' W 090°06'0 0.0
2018-May-14 23:26N 38°50' W 090°06'0 0.0
2018-May-14 23:01N 38°50' W 090°06'0 0.0
2018-May-14 22:30N 38°50' W 090°06'0 0.0
2018-May-14 22:01N 38°50' W 090°06'0 0.6
2018-May-14 21:31N 38°50' W 090°07'2 3.7
2018-May-14 21:00N 38°48' W 090°07'3 6.4
2018-May-14 20:31N 38°45' W 090°09'3 6.4
2018-May-14 20:00N 38°42' W 090°11'0 0.6
2018-May-14 19:31N 38°42' W 090°11'2 3.5
2018-May-14 19:00N 38°40' W 090°11'2 3.3
2018-May-14 18:30N 38°39' W 090°11'2 3.3
2018-May-14 18:01N 38°37' W 090°11'2 0.1
2018-May-14 05:40N 38°36' W 090°12'0 2.5
2018-May-14 05:30N 38°36' W 090°12'0 0.2
2018-May-14 04:54N 38°36' W 090°12'0 0.1
2018-May-14 04:29N 38°36' W 090°12'2 3.8
2018-May-14 04:01N 38°38' W 090°11'4 7.4
2018-May-14 03:30N 38°42' W 090°11'1 1.6
2018-May-14 03:00N 38°42' W 090°11'1 2.3
2018-May-14 02:29N 38°43' W 090°10'0 0.4
2018-May-14 02:00N 38°43' W 090°10'0 0.3
2018-May-14 01:29N 38°44' W 090°10'0 0.2
2018-May-14 01:01N 38°44' W 090°10'1 1.9
2018-May-14 00:30N 38°45' W 090°09'3 3.6
2018-May-13 23:34N 38°48' W 090°07'0 8.1
2018-May-13 23:31N 38°48' W 090°07'4 6.8
2018-May-13 22:59N 38°52' W 090°08'1 2.1
2018-May-13 22:29N 38°52' W 090°09'1 1.7
2018-May-13 22:01N 38°53' W 090°10'3 6.3
2018-May-13 21:31N 38°55' W 090°13'3 6.2
2018-May-13 21:00N 38°55' W 090°17'3 6.0
2018-May-13 20:31N 38°56' W 090°21'3 6.4
2018-May-13 20:01N 38°58' W 090°24'3 6.1
2018-May-13 19:31N 38°58' W 090°28'2 4.5
2018-May-13 19:01N 38°57' W 090°31'2 4.3
2018-May-13 18:31N 38°59' W 090°33'2 4.6
2018-May-13 18:00N 39°01' W 090°35'10 4.2
2018-May-13 15:37N 39°10' W 090°37'0 4.3
2018-May-13 15:31N 39°11' W 090°36'  
2018-May-09 08:25N 38°48' W 090°07'2 5.7
2018-May-09 08:01N 38°46' W 090°08'2 3.5
2018-May-09 07:30N 38°45' W 090°09'0 0.0
2018-May-09 07:01N 38°45' W 090°09'1 2.5
2018-May-09 06:31N 38°44' W 090°10'2 3.3
2018-May-09 05:58N 38°42' W 090°11'0 0.5
2018-May-09 05:30N 38°42' W 090°11'0 0.2
2018-May-09 05:01N 38°42' W 090°11'1 1.5
2018-May-09 04:31N 38°41' W 090°11'2 4.3
2018-May-09 04:00N 38°39' W 090°11'0 0.0
2018-May-09 03:30N 38°39' W 090°11'0 0.0
2018-May-09 03:00N 38°39' W 090°11'0 0.0
2018-May-09 02:30N 38°39' W 090°11'1 2.7
2018-May-09 02:01N 38°38' W 090°11'3 0.2
2018-May-08 13:38N 38°35' W 090°12'1 1.3
2018-May-08 13:13N 38°36' W 090°12'0 0.2
2018-May-08 12:55N 38°36' W 090°12'0 0.2
2018-May-08 12:29N 38°36' W 090°12'1 3.1
2018-May-08 12:01N 38°37' W 090°11'4 8.1
2018-May-08 11:31N 38°41' W 090°11'1 1.9
2018-May-08 11:01N 38°42' W 090°11'0 0.8
2018-May-08 10:31N 38°42' W 090°11'1 1.9
2018-May-08 10:00N 38°43' W 090°10'2 3.0
2018-May-08 09:30N 38°45' W 090°09'2 3.8
2018-May-08 09:00N 38°46' W 090°08'3 5.6
2018-May-08 08:31N 38°49' W 090°07'3 6.0
2018-May-08 08:00N 38°52' W 090°08'1 1.6
2018-May-08 07:31N 38°52' W 090°09'1 1.6
2018-May-08 07:00N 38°53' W 090°10'3 6.0
2018-May-08 06:31N 38°54' W 090°13'1 2.2
2018-May-08 06:01N 38°55' W 090°14'0 0.1
2018-May-08 05:31N 38°55' W 090°14'2 4.0
2018-May-08 05:01N 38°55' W 090°17'3 6.9
2018-May-08 04:31N 38°57' W 090°21'3 5.6
2018-May-08 04:01N 38°58' W 090°24'4 7.1
2018-May-08 03:30N 38°57' W 090°29'3 7.0
2018-May-08 03:01N 38°54' W 090°31'3 6.9
2018-May-08 02:31N 38°52' W 090°35'3 6.4
2018-May-08 02:01N 38°54' W 090°38'4 7.1
2018-May-08 01:30N 38°57' W 090°40'3 6.3
2018-May-08 01:00N 39°00' W 090°41'0 0.0
2018-May-08 00:31N 39°00' W 090°41'0 0.2
2018-May-08 00:00N 39°00' W 090°41'0 0.3
2018-May-07 23:30N 39°00' W 090°42'0 0.2
2018-May-07 23:00N 39°01' W 090°42'0 0.1
2018-May-07 22:31N 39°01' W 090°42'2 4.9
2018-May-07 22:01N 39°03' W 090°43'1 1.9
2018-May-07 21:31N 39°04' W 090°43'0 0.0
2018-May-07 21:00N 39°04' W 090°43'0 0.0
2018-May-07 20:31N 39°04' W 090°43'0 0.0
2018-May-07 20:01N 39°04' W 090°43'0 0.1
2018-May-07 19:31N 39°04' W 090°43'3 5.0
2018-May-07 19:01N 39°06' W 090°41'3 6.1
2018-May-07 18:28N 39°09' W 090°43'  
Track history (hours):
 
Tides and Currents Weather Stations Pressure Air Temp Water Temp Dewpoint Dewpoint Depression Visibility Wind Speed Wind Dir Waves Ship Positions

American Beauty

Owner: American River Transportation Company, St Louis, MO. More information available from US FCC via Universal Licensing System and Coast Guard Vessel Documentation Center.

Last reported at 2018-May-15 14:20 UTC. Time now 2018-May-23 15:11 UTC.
Position N 38°50' W 090°06'.
Warning: this ship's position is 8 days out of date.

; draft 3.5 m.

Type: Towing. MMSI: 366984180.

Date/timePositionNaut miles runAvg speedWind from/ knotsBaromVisibWave heightAir tempDewpointWater temp
2018-May-15 14:20N 38°50' W 090°06'0 0.0
2018-May-15 14:01N 38°50' W 090°06'0 0.0
2018-May-15 13:30N 38°50' W 090°06'0 0.0
2018-May-15 13:00N 38°50' W 090°06'0 0.0
2018-May-15 12:30N 38°50' W 090°06'0 0.0
2018-May-15 12:01N 38°50' W 090°07'0 0.0
2018-May-15 11:30N 38°50' W 090°07'0 0.0
2018-May-15 11:01N 38°50' W 090°07'0 0.0
2018-May-15 10:31N 38°50' W 090°07'0 0.0
2018-May-15 10:00N 38°50' W 090°07'0 0.0
2018-May-15 09:31N 38°50' W 090°07'0 0.0
2018-May-15 09:01N 38°50' W 090°07'0 0.0
2018-May-15 08:31N 38°50' W 090°07'0 0.0
2018-May-15 08:01N 38°50' W 090°07'0 0.0
2018-May-15 07:30N 38°50' W 090°07'0 0.0
2018-May-15 07:01N 38°50' W 090°06'0 0.0
2018-May-15 06:31N 38°50' W 090°07'0 0.0
2018-May-15 06:01N 38°50' W 090°06'0 0.0
2018-May-15 05:30N 38°50' W 090°07'0 0.0
2018-May-15 05:01N 38°50' W 090°06'0 0.0
2018-May-15 04:31N 38°50' W 090°07'0 0.0
2018-May-15 04:01N 38°50' W 090°07'0 0.0
2018-May-15 03:31N 38°50' W 090°07'0 0.0
2018-May-15 03:01N 38°50' W 090°07'0 0.4
2018-May-15 02:30N 38°50' W 090°06'0 0.0
2018-May-15 01:58N 38°50' W 090°06'0 0.0
2018-May-15 01:29N 38°50' W 090°06'0 0.0
2018-May-15 00:53N 38°50' W 090°06'0 0.0
2018-May-15 00:30N 38°50' W 090°06'0 0.0
2018-May-15 00:01N 38°50' W 090°06'0 0.0
2018-May-14 23:26N 38°50' W 090°06'0 0.0
2018-May-14 23:01N 38°50' W 090°06'0 0.0
2018-May-14 22:30N 38°50' W 090°06'0 0.0
2018-May-14 22:01N 38°50' W 090°06'0 0.6
2018-May-14 21:31N 38°50' W 090°07'2 3.7
2018-May-14 21:00N 38°48' W 090°07'3 6.4
2018-May-14 20:31N 38°45' W 090°09'3 6.4
2018-May-14 20:00N 38°42' W 090°11'0 0.6
2018-May-14 19:31N 38°42' W 090°11'2 3.5
2018-May-14 19:00N 38°40' W 090°11'2 3.3
2018-May-14 18:30N 38°39' W 090°11'2 3.3
2018-May-14 18:01N 38°37' W 090°11'2 0.1
2018-May-14 05:40N 38°36' W 090°12'0 2.5
2018-May-14 05:30N 38°36' W 090°12'0 0.2
2018-May-14 04:54N 38°36' W 090°12'0 0.1
2018-May-14 04:29N 38°36' W 090°12'2 3.8
2018-May-14 04:01N 38°38' W 090°11'4 7.4
2018-May-14 03:30N 38°42' W 090°11'1 1.6
2018-May-14 03:00N 38°42' W 090°11'1 2.3
2018-May-14 02:29N 38°43' W 090°10'0 0.4
2018-May-14 02:00N 38°43' W 090°10'0 0.3
2018-May-14 01:29N 38°44' W 090°10'0 0.2
2018-May-14 01:01N 38°44' W 090°10'1 1.9
2018-May-14 00:30N 38°45' W 090°09'3 3.6
2018-May-13 23:34N 38°48' W 090°07'0 8.1
2018-May-13 23:31N 38°48' W 090°07'4 6.8
2018-May-13 22:59N 38°52' W 090°08'1 2.1
2018-May-13 22:29N 38°52' W 090°09'1 1.7
2018-May-13 22:01N 38°53' W 090°10'3 6.3
2018-May-13 21:31N 38°55' W 090°13'3 6.2
2018-May-13 21:00N 38°55' W 090°17'3 6.0
2018-May-13 20:31N 38°56' W 090°21'3 6.4
2018-May-13 20:01N 38°58' W 090°24'3 6.1
2018-May-13 19:31N 38°58' W 090°28'2 4.5
2018-May-13 19:01N 38°57' W 090°31'2 4.3
2018-May-13 18:31N 38°59' W 090°33'2 4.6
2018-May-13 18:00N 39°01' W 090°35'10 4.2
2018-May-13 15:37N 39°10' W 090°37'0 4.3
2018-May-13 15:31N 39°11' W 090°36'  
2018-May-09 08:25N 38°48' W 090°07'2 5.7
2018-May-09 08:01N 38°46' W 090°08'2 3.5
2018-May-09 07:30N 38°45' W 090°09'0 0.0
2018-May-09 07:01N 38°45' W 090°09'1 2.5
2018-May-09 06:31N 38°44' W 090°10'2 3.3
2018-May-09 05:58N 38°42' W 090°11'0 0.5
2018-May-09 05:30N 38°42' W 090°11'0 0.2
2018-May-09 05:01N 38°42' W 090°11'1 1.5
2018-May-09 04:31N 38°41' W 090°11'2 4.3
2018-May-09 04:00N 38°39' W 090°11'0 0.0
2018-May-09 03:30N 38°39' W 090°11'0 0.0
2018-May-09 03:00N 38°39' W 090°11'0 0.0
2018-May-09 02:30N 38°39' W 090°11'1 2.7
2018-May-09 02:01N 38°38' W 090°11'3 0.2
2018-May-08 13:38N 38°35' W 090°12'1 1.3
2018-May-08 13:13N 38°36' W 090°12'0 0.2
2018-May-08 12:55N 38°36' W 090°12'0 0.2
2018-May-08 12:29N 38°36' W 090°12'1 3.1
2018-May-08 12:01N 38°37' W 090°11'4 8.1
2018-May-08 11:31N 38°41' W 090°11'1 1.9
2018-May-08 11:01N 38°42' W 090°11'0 0.8
2018-May-08 10:31N 38°42' W 090°11'1 1.9
2018-May-08 10:00N 38°43' W 090°10'2 3.0
2018-May-08 09:30N 38°45' W 090°09'2 3.8
2018-May-08 09:00N 38°46' W 090°08'3 5.6
2018-May-08 08:31N 38°49' W 090°07'3 6.0
2018-May-08 08:00N 38°52' W 090°08'1 1.6
2018-May-08 07:31N 38°52' W 090°09'1 1.6
2018-May-08 07:00N 38°53' W 090°10'3 6.0
2018-May-08 06:31N 38°54' W 090°13'1 2.2
2018-May-08 06:01N 38°55' W 090°14'0 0.1
2018-May-08 05:31N 38°55' W 090°14'2 4.0
2018-May-08 05:01N 38°55' W 090°17'3 6.9
2018-May-08 04:31N 38°57' W 090°21'3 5.6
2018-May-08 04:01N 38°58' W 090°24'4 7.1
2018-May-08 03:30N 38°57' W 090°29'3 7.0
2018-May-08 03:01N 38°54' W 090°31'3 6.9
2018-May-08 02:31N 38°52' W 090°35'3 6.4
2018-May-08 02:01N 38°54' W 090°38'4 7.1
2018-May-08 01:30N 38°57' W 090°40'3 6.3
2018-May-08 01:00N 39°00' W 090°41'0 0.0
2018-May-08 00:31N 39°00' W 090°41'0 0.2
2018-May-08 00:00N 39°00' W 090°41'0 0.3
2018-May-07 23:30N 39°00' W 090°42'0 0.2
2018-May-07 23:00N 39°01' W 090°42'0 0.1
2018-May-07 22:31N 39°01' W 090°42'2 4.9
2018-May-07 22:01N 39°03' W 090°43'1 1.9
2018-May-07 21:31N 39°04' W 090°43'0 0.0
2018-May-07 21:00N 39°04' W 090°43'0 0.0
2018-May-07 20:31N 39°04' W 090°43'0 0.0
2018-May-07 20:01N 39°04' W 090°43'0 0.1
2018-May-07 19:31N 39°04' W 090°43'3 5.0
2018-May-07 19:01N 39°06' W 090°41'3 6.1
2018-May-07 18:28N 39°09' W 090°43'  

Dump ship's entire track history